createdAt,value
2023-04-15T00:01:10.115Z,95980.88
2023-04-15T00:03:39.477Z,95985.75
2023-04-15T00:06:06.333Z,95977.75
2023-04-15T00:08:34.934Z,95978.03
2023-04-15T00:11:05.924Z,95976.41
2023-04-15T00:13:35.025Z,95981.31
2023-04-15T00:16:02.351Z,95977.41
2023-04-15T00:18:31.777Z,95979.22
2023-04-15T00:21:01.182Z,95978.88
2023-04-15T00:23:33.591Z,95972.66
2023-04-15T00:26:04.946Z,95973.16
2023-04-15T00:28:34.491Z,95968.06
2023-04-15T00:31:01.173Z,95971.09
2023-04-15T00:33:27.812Z,95970.38
2023-04-15T00:35:56.651Z,95967.66
2023-04-15T00:38:23.212Z,95964.16
2023-04-15T00:40:55.161Z,95963.75
2023-04-15T00:43:21.835Z,95966.38
2023-04-15T00:45:48.428Z,95959.06
2023-04-15T00:48:18.206Z,95960.69
2023-04-15T00:50:47.003Z,95962.75
2023-04-15T00:53:13.534Z,95962.16
2023-04-15T00:55:42.551Z,95958.13
2023-04-15T00:58:12.116Z,95969.81
2023-04-15T01:00:43.982Z,95966.69
2023-04-15T01:03:15.524Z,95969.72
2023-04-15T01:05:42.392Z,95964.19
2023-04-15T01:08:09.809Z,95961.75
2023-04-15T01:10:36.696Z,95960.69
2023-04-15T01:13:03.968Z,95972.19
2023-04-15T01:15:31.452Z,95966.97
2023-04-15T01:17:59.602Z,95971.31
2023-04-15T01:20:28.939Z,95968.41
2023-04-15T01:22:56.156Z,95970.66
2023-04-15T01:25:35.121Z,95968.66
2023-04-15T01:28:04.991Z,95972.09
2023-04-15T01:30:36.952Z,95965.97
2023-04-15T01:33:06.606Z,95956.31
2023-04-15T01:35:33.350Z,95960.47
2023-04-15T01:38:08.402Z,95955.44
2023-04-15T01:40:37.411Z,95956.28
2023-04-15T01:43:03.960Z,95950.22
2023-04-15T01:45:31.075Z,95952.91
2023-04-15T01:48:00.905Z,95956.53
2023-04-15T01:50:29.793Z,95952.09
2023-04-15T01:52:56.339Z,95955.09
2023-04-15T01:55:25.533Z,95957.25
2023-04-15T01:57:54.434Z,95956.38
2023-04-15T02:00:23.303Z,95962.88
2023-04-15T02:02:49.944Z,95952.16
2023-04-15T02:05:16.753Z,95957.50
2023-04-15T02:07:43.674Z,95961.28
2023-04-15T02:10:13.475Z,95961.22
2023-04-15T02:12:40.729Z,95971.13
2023-04-15T02:15:07.910Z,95968.47
2023-04-15T02:17:37.654Z,95965.03
2023-04-15T02:20:10.725Z,95966.19
2023-04-15T02:22:39.988Z,95960.81
2023-04-15T02:25:07.337Z,95966.97
2023-04-15T02:27:33.933Z,95956.28
2023-04-15T02:30:02.724Z,95960.13
2023-04-15T02:32:29.401Z,95958.53
2023-04-15T02:35:02.758Z,95955.72
2023-04-15T02:37:32.573Z,95949.53
2023-04-15T02:39:59.167Z,95952.81
2023-04-15T02:42:27.805Z,95951.41
2023-04-15T02:44:55.100Z,95968.38
2023-04-15T02:47:21.727Z,95962.81
2023-04-15T02:49:48.368Z,95959.56
2023-04-15T02:52:14.921Z,95958.81
2023-04-15T02:54:41.515Z,95964.28
2023-04-15T02:57:08.048Z,95969.00
2023-04-15T02:59:34.586Z,95967.88
2023-04-15T03:02:01.260Z,95957.56
2023-04-15T03:04:32.631Z,95955.47
2023-04-15T03:07:01.807Z,95961.63
2023-04-15T03:09:28.527Z,95957.72
2023-04-15T03:11:55.122Z,95959.28
2023-04-15T03:14:24.187Z,95948.97
2023-04-15T03:16:53.282Z,95945.09
2023-04-15T03:19:22.156Z,95950.84
2023-04-15T03:21:52.102Z,95952.22
2023-04-15T03:24:20.924Z,95950.66
2023-04-15T03:26:47.472Z,95949.13
2023-04-15T03:29:14.019Z,95956.88
2023-04-15T03:31:43.005Z,95957.03
2023-04-15T03:34:14.269Z,95952.94
2023-04-15T03:36:45.776Z,95955.16
2023-04-15T03:39:14.519Z,95960.06
2023-04-15T03:41:41.074Z,95951.03
2023-04-15T03:44:09.833Z,95956.59
2023-04-15T03:46:36.418Z,95958.19
2023-04-15T03:49:05.689Z,95960.84
2023-04-15T03:51:34.942Z,95963.63
2023-04-15T03:54:02.202Z,95962.38
2023-04-15T03:56:28.795Z,95963.41
2023-04-15T03:58:57.573Z,95959.50
2023-04-15T04:01:26.576Z,95952.44
2023-04-15T04:03:55.496Z,95950.88
2023-04-15T04:06:22.221Z,95955.94
2023-04-15T04:08:48.758Z,95957.47
2023-04-15T04:11:15.301Z,95961.78
2023-04-15T04:13:41.899Z,95955.00
2023-04-15T04:16:08.571Z,95954.25
2023-04-15T04:18:35.390Z,95956.34
2023-04-15T04:21:02.108Z,95960.16
2023-04-15T04:23:28.736Z,95957.53
2023-04-15T04:25:55.291Z,95968.88
2023-04-15T04:28:24.085Z,95969.13
2023-04-15T04:30:54.234Z,95956.78
2023-04-15T04:33:25.559Z,95966.38
2023-04-15T04:35:52.117Z,95970.44
2023-04-15T04:38:23.134Z,95963.63
2023-04-15T04:40:49.688Z,95965.69
2023-04-15T04:43:18.917Z,95977.84
2023-04-15T04:45:50.486Z,95975.97
2023-04-15T04:48:17.425Z,95974.50
2023-04-15T04:50:47.160Z,95976.06
2023-04-15T04:53:13.886Z,95974.72
2023-04-15T04:55:40.580Z,95969.94
2023-04-15T04:58:07.142Z,95981.09
2023-04-15T05:00:33.771Z,95979.53
2023-04-15T05:03:00.938Z,95984.91
2023-04-15T05:05:30.122Z,95989.25
2023-04-15T05:07:58.979Z,95989.06
2023-04-15T05:10:27.835Z,95981.81
2023-04-15T05:12:56.630Z,95989.88
2023-04-15T05:15:23.177Z,96001.47
2023-04-15T05:17:51.868Z,95986.94
2023-04-15T05:20:18.522Z,95992.38
2023-04-15T05:22:47.544Z,95993.31
2023-04-15T05:25:16.458Z,95997.75
2023-04-15T05:27:45.424Z,95996.38
2023-04-15T05:30:13.551Z,95991.97
2023-04-15T05:32:41.137Z,95995.63
2023-04-15T05:35:11.040Z,95999.88
2023-04-15T05:37:40.156Z,95987.66
2023-04-15T05:40:07.132Z,96004.03
2023-04-15T05:42:35.003Z,95995.06
2023-04-15T05:45:05.617Z,96002.38
2023-04-15T05:47:32.306Z,95995.31
2023-04-15T05:50:01.576Z,96004.00
2023-04-15T05:52:28.125Z,95997.09
2023-04-15T05:54:54.677Z,95999.44
2023-04-15T05:57:21.284Z,96000.38
2023-04-15T05:59:51.656Z,95999.94
2023-04-15T06:02:21.222Z,95993.81
2023-04-15T06:04:48.568Z,95998.88
2023-04-15T06:07:15.519Z,95993.59
2023-04-15T06:09:42.115Z,96003.00
2023-04-15T06:12:12.324Z,95997.03
2023-04-15T06:14:41.786Z,95991.09
2023-04-15T06:17:08.805Z,95993.78
2023-04-15T06:19:36.717Z,96000.72
2023-04-15T06:22:07.288Z,95994.63
2023-04-15T06:24:33.930Z,95989.31
2023-04-15T06:27:02.361Z,95999.78
2023-04-15T06:29:33.925Z,96004.69
2023-04-15T06:32:02.794Z,96006.69
2023-04-15T06:34:29.359Z,96005.56
2023-04-15T06:36:56.062Z,96007.97
2023-04-15T06:39:22.649Z,96005.28
2023-04-15T06:41:53.931Z,96013.94
2023-04-15T06:44:20.716Z,96006.94
2023-04-15T06:46:49.946Z,96010.25
2023-04-15T06:49:16.489Z,96008.50
2023-04-15T06:51:43.169Z,96012.63
2023-04-15T06:54:09.744Z,96002.97
2023-04-15T06:56:36.438Z,96013.47
2023-04-15T06:59:03.765Z,96005.22
2023-04-15T07:01:30.684Z,96009.97
2023-04-15T07:03:57.704Z,96008.16
2023-04-15T07:06:24.783Z,96007.09
2023-04-15T07:08:54.341Z,96009.81
2023-04-15T07:11:21.280Z,96007.63
2023-04-15T07:13:47.912Z,96009.19
2023-04-15T07:16:14.572Z,96009.75
2023-04-15T07:18:41.211Z,96010.25
2023-04-15T07:21:10.159Z,96009.53
2023-04-15T07:23:36.671Z,96004.91
2023-04-15T07:26:06.020Z,96011.13
2023-04-15T07:28:34.808Z,96009.09
2023-04-15T07:31:04.400Z,96012.41
2023-04-15T07:33:31.077Z,96010.53
2023-04-15T07:35:58.206Z,96002.19
2023-04-15T07:38:27.253Z,96004.44
2023-04-15T07:40:58.382Z,96015.84
2023-04-15T07:43:25.097Z,96005.53
2023-04-15T07:45:53.840Z,96008.03
2023-04-15T07:48:20.595Z,96012.81
2023-04-15T07:50:47.207Z,96010.16
2023-04-15T07:53:13.922Z,96013.97
2023-04-15T07:55:40.625Z,96009.34
2023-04-15T07:58:09.423Z,96015.91
2023-04-15T08:00:38.611Z,96014.50
2023-04-15T08:03:05.252Z,96011.94
2023-04-15T08:05:34.252Z,96015.88
2023-04-15T08:08:01.301Z,96011.41
2023-04-15T08:10:31.696Z,96014.91
2023-04-15T08:12:58.481Z,96012.91
2023-04-15T08:15:28.487Z,96010.25
2023-04-15T08:17:55.077Z,96005.94
2023-04-15T08:20:21.687Z,96006.69
2023-04-15T08:22:52.225Z,96006.16
2023-04-15T08:25:19.942Z,96008.66
2023-04-15T08:27:49.034Z,96009.63
2023-04-15T08:30:15.619Z,96004.94
2023-04-15T08:32:48.347Z,96008.81
2023-04-15T08:35:17.691Z,96008.50
2023-04-15T08:37:44.273Z,96006.03
2023-04-15T08:40:11.453Z,96010.97
2023-04-15T08:42:44.921Z,96010.97
2023-04-15T08:45:14.012Z,96013.66
2023-04-15T08:47:41.142Z,96006.78
2023-04-15T08:50:10.685Z,96008.63
2023-04-15T08:52:37.425Z,96016.06
2023-04-15T08:55:07.196Z,96008.06
2023-04-15T08:57:33.999Z,96008.75
2023-04-15T09:00:05.703Z,96002.16
2023-04-15T09:02:32.572Z,96007.19
2023-04-15T09:04:59.177Z,96009.25
2023-04-15T09:07:27.992Z,96014.63
2023-04-15T09:09:54.570Z,96010.47
2023-04-15T09:12:21.853Z,96016.19
2023-04-15T09:14:50.981Z,96021.50
2023-04-15T09:17:21.747Z,96019.81
2023-04-15T09:19:50.552Z,96023.94
2023-04-15T09:22:20.663Z,96026.66
2023-04-15T09:24:47.606Z,96020.31
2023-04-15T09:27:18.549Z,96029.88
2023-04-15T09:29:45.083Z,96031.94
2023-04-15T09:32:15.670Z,96037.97
2023-04-15T09:34:42.705Z,96034.28
2023-04-15T09:37:24.627Z,96041.78
2023-04-15T09:39:58.506Z,96034.53
2023-04-15T09:42:28.296Z,96038.34
2023-04-15T09:45:10.562Z,96033.97
2023-04-15T09:47:41.822Z,96042.75
2023-04-15T09:50:08.719Z,96042.34
2023-04-15T09:52:45.661Z,96042.44
2023-04-15T09:55:17.145Z,96043.72
2023-04-15T09:57:47.310Z,96050.00
2023-04-15T10:00:14.959Z,96049.38
2023-04-15T10:02:42.857Z,96059.97
2023-04-15T10:05:12.608Z,96063.53
2023-04-15T10:07:42.905Z,96061.06
2023-04-15T10:10:13.532Z,96062.56
2023-04-15T10:12:43.986Z,96067.66
2023-04-15T10:15:16.517Z,96076.16
2023-04-15T10:17:48.066Z,96070.06
2023-04-15T10:20:17.132Z,96073.09
2023-04-15T10:22:45.469Z,96071.00
2023-04-15T10:25:15.772Z,96076.66
2023-04-15T10:27:42.425Z,96082.81
2023-04-15T10:30:09.552Z,96081.41
2023-04-15T10:32:36.635Z,96090.94
2023-04-15T10:35:04.305Z,96094.59
2023-04-15T10:37:38.983Z,96087.56
2023-04-15T10:40:26.327Z,96096.44
2023-04-15T10:42:55.852Z,96095.13
2023-04-15T10:45:26.770Z,96098.09
2023-04-15T10:48:03.306Z,96101.56
2023-04-15T10:50:32.628Z,96103.75
2023-04-15T10:52:59.448Z,96111.25
2023-04-15T10:55:32.871Z,96112.09
2023-04-15T10:58:03.605Z,96110.91
2023-04-15T11:00:35.720Z,96125.16
2023-04-15T11:03:09.230Z,96125.28
2023-04-15T11:05:44.613Z,96127.75
2023-04-15T11:08:13.104Z,96131.66
2023-04-15T11:10:39.567Z,96132.75
2023-04-15T11:13:18.005Z,96139.94
2023-04-15T11:15:45.745Z,96139.38
2023-04-15T11:18:22.400Z,96145.03
2023-04-15T11:20:50.846Z,96146.84
2023-04-15T11:23:27.680Z,96150.63
2023-04-15T11:25:56.572Z,96157.81
2023-04-15T11:28:31.062Z,96155.41
2023-04-15T11:30:58.629Z,96159.91
2023-04-15T11:33:28.089Z,96151.69
2023-04-15T11:35:55.241Z,96158.28
2023-04-15T11:38:22.458Z,96152.88
2023-04-15T11:40:51.004Z,96163.44
2023-04-15T11:43:21.565Z,96164.09
2023-04-15T11:45:58.297Z,96169.63
2023-04-15T11:48:26.815Z,96169.56
2023-04-15T11:50:57.977Z,96175.41
2023-04-15T11:53:25.447Z,96173.03
2023-04-15T11:55:54.518Z,96172.81
2023-04-15T11:58:26.691Z,96176.91
2023-04-15T12:01:04.484Z,96183.13
2023-04-15T12:03:37.261Z,96188.97
2023-04-15T12:06:16.665Z,96183.88
2023-04-15T12:08:56.177Z,96199.56
2023-04-15T12:11:45.380Z,96200.09
2023-04-15T12:14:12.646Z,96203.91
2023-04-15T12:16:50.086Z,96200.34
2023-04-15T12:19:26.851Z,96202.84
2023-04-15T12:22:00.365Z,96207.78
2023-04-15T12:24:27.970Z,96211.16
2023-04-15T12:26:58.240Z,96213.19
2023-04-15T12:29:29.281Z,96218.72
2023-04-15T12:31:58.496Z,96221.94
2023-04-15T12:34:50.890Z,96229.97
2023-04-15T12:37:19.713Z,96223.47
2023-04-15T12:39:53.940Z,96228.06
2023-04-15T12:42:20.691Z,96236.47
2023-04-15T12:44:47.372Z,96243.09
2023-04-15T12:47:16.503Z,96252.00
2023-04-15T12:49:43.188Z,96253.75
2023-04-15T12:52:12.529Z,96248.22
2023-04-15T12:54:39.539Z,96242.34
2023-04-15T12:57:07.447Z,96250.88
2023-04-15T12:59:35.170Z,96260.09
2023-04-15T13:02:04.146Z,96263.63
2023-04-15T13:04:33.385Z,96258.59
2023-04-15T13:07:00.242Z,96264.59
2023-04-15T13:09:27.125Z,96267.09
2023-04-15T13:11:54.467Z,96267.78
2023-04-15T13:14:21.333Z,96268.56
2023-04-15T13:16:47.927Z,96264.91
2023-04-15T13:19:14.870Z,96275.91
2023-04-15T13:21:43.740Z,96270.66
2023-04-15T13:24:10.654Z,96267.75
2023-04-15T13:26:37.836Z,96265.25
2023-04-15T13:29:06.803Z,96265.03
2023-04-15T13:31:33.435Z,96275.25
2023-04-15T13:34:00.011Z,96271.09
2023-04-15T13:36:28.878Z,96277.28
2023-04-15T13:38:55.807Z,96284.00
2023-04-15T13:41:24.925Z,96292.28
2023-04-15T13:43:51.634Z,96290.19
2023-04-15T13:46:18.310Z,96288.03
2023-04-15T13:48:47.712Z,96300.09
2023-04-15T13:51:16.519Z,96302.25
2023-04-15T13:53:43.049Z,96302.78
2023-04-15T13:56:10.359Z,96305.81
2023-04-15T13:58:38.106Z,96319.50
2023-04-15T14:01:07.528Z,96319.19
2023-04-15T14:03:41.898Z,96316.41
2023-04-15T14:06:08.726Z,96314.41
2023-04-15T14:08:37.557Z,96324.38
2023-04-15T14:11:11.388Z,96326.66
2023-04-15T14:13:41.411Z,96332.31
2023-04-15T14:16:08.101Z,96331.91
2023-04-15T14:18:39.498Z,96336.31
2023-04-15T14:21:08.880Z,96337.31
2023-04-15T14:23:37.951Z,96345.00
2023-04-15T14:26:07.297Z,96344.00
2023-04-15T14:28:38.517Z,96346.53
2023-04-15T14:31:05.303Z,96347.28
2023-04-15T14:33:34.851Z,96360.50
2023-04-15T14:36:01.457Z,96367.28
2023-04-15T14:38:28.116Z,96366.41
2023-04-15T14:40:56.902Z,96369.88
2023-04-15T14:43:23.473Z,96377.38
2023-04-15T14:45:51.566Z,96378.78
2023-04-15T14:48:20.429Z,96392.97
2023-04-15T14:50:47.234Z,96391.53
2023-04-15T14:53:13.889Z,96400.28
2023-04-15T14:55:43.627Z,96403.31
2023-04-15T14:58:12.581Z,96422.25
2023-04-15T15:00:41.986Z,96412.31
2023-04-15T15:03:13.022Z,96413.09
2023-04-15T15:05:46.185Z,96428.28
2023-04-15T15:08:15.601Z,96435.28
2023-04-15T15:10:48.641Z,96434.81
2023-04-15T15:13:19.609Z,96437.78
2023-04-15T15:15:46.686Z,96435.81
2023-04-15T15:18:13.352Z,96440.66
2023-04-15T15:20:39.924Z,96442.19
2023-04-15T15:23:06.498Z,96447.50
2023-04-15T15:25:36.072Z,96460.63
2023-04-15T15:28:06.312Z,96464.94
2023-04-15T15:30:32.927Z,96470.44
2023-04-15T15:33:01.986Z,96471.00
2023-04-15T15:35:31.137Z,96476.19
2023-04-15T15:38:01.515Z,96478.88
2023-04-15T15:40:32.803Z,96476.66
2023-04-15T15:43:01.571Z,96481.00
2023-04-15T15:45:28.126Z,96481.69
2023-04-15T15:47:54.837Z,96485.38
2023-04-15T15:50:21.497Z,96483.09
2023-04-15T15:52:48.075Z,96490.47
2023-04-15T15:55:14.659Z,96498.63
2023-04-15T15:57:41.151Z,96504.75
2023-04-15T16:00:12.422Z,96503.22
2023-04-15T16:03:05.292Z,96508.56
2023-04-15T16:05:28.874Z,96506.72
2023-04-15T16:07:57.767Z,96512.69
2023-04-15T16:10:26.845Z,96511.78
2023-04-15T16:12:56.136Z,96501.66
2023-04-15T16:15:26.423Z,96505.47
2023-04-15T16:17:53.039Z,96497.75
2023-04-15T16:20:21.899Z,96510.41
2023-04-15T16:22:48.605Z,96519.84
2023-04-15T16:25:17.298Z,96530.03
2023-04-15T16:27:58.833Z,96528.03
2023-04-15T16:30:30.403Z,96530.91
2023-04-15T16:32:57.793Z,96535.34
2023-04-15T16:35:24.394Z,96535.09
2023-04-15T16:37:53.765Z,96539.44
2023-04-15T16:40:20.381Z,96542.41
2023-04-15T16:42:49.370Z,96545.09
2023-04-15T16:45:18.873Z,96544.88
2023-04-15T16:47:45.422Z,96545.09
2023-04-15T16:50:14.525Z,96544.78
2023-04-15T16:52:46.301Z,96545.03
2023-04-15T16:55:12.926Z,96550.34
2023-04-15T16:58:01.089Z,96555.00
2023-04-15T17:00:26.037Z,96557.41
2023-04-15T17:02:52.825Z,96559.66
2023-04-15T17:05:19.596Z,96563.72
2023-04-15T17:07:48.348Z,96558.19
2023-04-15T17:10:15.024Z,96569.63
2023-04-15T17:12:41.612Z,96572.31
2023-04-15T17:15:08.934Z,96572.13
2023-04-15T17:17:35.525Z,96569.78
2023-04-15T17:20:02.093Z,96580.59
2023-04-15T17:22:28.702Z,96586.94
2023-04-15T17:24:55.284Z,96588.94
2023-04-15T17:27:22.387Z,96598.19
2023-04-15T17:29:48.952Z,96612.00
2023-04-15T17:32:15.506Z,96604.44
2023-04-15T17:34:49.497Z,96612.19
2023-04-15T17:37:22.736Z,96617.22
2023-04-15T17:39:49.359Z,96612.72
2023-04-15T17:42:16.972Z,96623.78
2023-04-15T17:44:43.558Z,96635.03
2023-04-15T17:47:10.767Z,96633.94
2023-04-15T17:49:37.874Z,96638.94
2023-04-15T17:52:07.323Z,96642.06
2023-04-15T17:54:34.037Z,96643.94
2023-04-15T17:57:01.430Z,96652.53
2023-04-15T17:59:30.629Z,96642.97
2023-04-15T18:01:58.677Z,96643.47
2023-04-15T18:04:26.852Z,96648.50
2023-04-15T18:06:56.023Z,96645.88
2023-04-15T18:09:24.936Z,96643.72
2023-04-15T18:11:51.523Z,96643.72
2023-04-15T18:14:32.982Z,96654.25
2023-04-15T18:17:03.903Z,96655.44
2023-04-15T18:19:30.889Z,96649.31
2023-04-15T18:22:00.011Z,96655.22
2023-04-15T18:24:29.136Z,96660.69
2023-04-15T18:26:59.035Z,96671.97
2023-04-15T18:29:25.750Z,96668.16
2023-04-15T18:31:52.678Z,96673.22
2023-04-15T18:34:21.581Z,96677.16
2023-04-15T18:36:50.498Z,96678.31
2023-04-15T18:39:17.082Z,96681.03
2023-04-15T18:41:43.689Z,96693.09
2023-04-15T18:44:10.270Z,96700.81
2023-04-15T18:46:36.919Z,96704.72
2023-04-15T18:49:06.325Z,96707.06
2023-04-15T18:51:33.380Z,96707.44
2023-04-15T18:54:02.912Z,96709.03
2023-04-15T18:56:34.954Z,96712.97
2023-04-15T18:59:09.376Z,96720.72
2023-04-15T19:01:51.665Z,96718.00
2023-04-15T19:04:18.592Z,96725.84
2023-04-15T19:06:47.808Z,96723.13
2023-04-15T19:09:16.996Z,96724.72
2023-04-15T19:11:43.816Z,96739.41
2023-04-15T19:14:13.634Z,96734.00
2023-04-15T19:16:40.215Z,96743.63
2023-04-15T19:19:07.015Z,96745.22
2023-04-15T19:21:38.519Z,96737.81
2023-04-15T19:24:05.555Z,96753.28
2023-04-15T19:26:34.688Z,96762.19
2023-04-15T19:29:01.322Z,96773.00
2023-04-15T19:31:32.597Z,96772.31
2023-04-15T19:33:59.120Z,96776.94
2023-04-15T19:36:28.573Z,96783.13
2023-04-15T19:38:57.447Z,96782.34
2023-04-15T19:41:23.972Z,96787.75
2023-04-15T19:43:50.624Z,96784.66
2023-04-15T19:46:19.842Z,96789.69
2023-04-15T19:48:46.509Z,96793.16
2023-04-15T19:51:15.521Z,96803.97
2023-04-15T19:53:46.831Z,96816.78
2023-04-15T19:56:13.662Z,96828.03
2023-04-15T19:58:40.233Z,96829.25
2023-04-15T20:01:06.928Z,96820.72
2023-04-15T20:03:33.564Z,96826.09
2023-04-15T20:06:00.210Z,96824.50
2023-04-15T20:08:29.046Z,96815.22
2023-04-15T20:10:57.962Z,96816.75
2023-04-15T20:13:24.498Z,96817.66
2023-04-15T20:15:54.122Z,96809.13
2023-04-15T20:18:23.224Z,96821.03
2023-04-15T20:20:49.797Z,96817.16
2023-04-15T20:23:16.445Z,96822.16
2023-04-15T20:25:45.853Z,96818.28
2023-04-15T20:28:12.411Z,96819.09
2023-04-15T20:30:39.637Z,96820.69
2023-04-15T20:33:08.974Z,96830.38
2023-04-15T20:35:37.872Z,96827.28
2023-04-15T20:38:04.598Z,96830.75
2023-04-15T20:40:33.698Z,96830.31
2023-04-15T20:43:03.007Z,96825.34
2023-04-15T20:45:29.544Z,96836.91
2023-04-15T20:47:56.286Z,96829.28
2023-04-15T20:50:22.890Z,96835.03
2023-04-15T20:52:49.470Z,96840.09
2023-04-15T20:55:16.269Z,96842.91
2023-04-15T20:57:45.156Z,96845.59
2023-04-15T21:00:14.959Z,96844.41
2023-04-15T21:02:47.227Z,96845.22
2023-04-15T21:05:21.608Z,96841.34
2023-04-15T21:07:50.489Z,96852.22
2023-04-15T21:10:19.296Z,96846.03
2023-04-15T21:12:48.128Z,96844.16
2023-04-15T21:15:16.951Z,96846.09
2023-04-15T21:17:45.724Z,96844.13
2023-04-15T21:20:15.288Z,96851.06
2023-04-15T21:22:46.624Z,96851.44
2023-04-15T21:25:15.407Z,96857.66
2023-04-15T21:27:41.957Z,96862.69
2023-04-15T21:30:11.278Z,96863.06
2023-04-15T21:32:37.852Z,96860.78
2023-04-15T21:35:07.249Z,96864.63
2023-04-15T21:37:38.591Z,96866.22
2023-04-15T21:40:05.721Z,96863.47
2023-04-15T21:42:32.574Z,96872.00
2023-04-15T21:44:59.193Z,96879.69
2023-04-15T21:47:25.936Z,96882.44
2023-04-15T21:49:52.633Z,96882.81
2023-04-15T21:52:23.697Z,96880.13
2023-04-15T21:54:52.477Z,96885.16
2023-04-15T21:57:21.388Z,96890.19
2023-04-15T21:59:47.923Z,96892.88
2023-04-15T22:02:16.635Z,96892.47
2023-04-15T22:04:43.289Z,96890.59
2023-04-15T22:07:12.090Z,96887.88
2023-04-15T22:09:38.609Z,96895.97
2023-04-15T22:12:05.571Z,96897.13
2023-04-15T22:14:34.382Z,96896.00
2023-04-15T22:17:03.268Z,96896.44
2023-04-15T22:19:29.857Z,96896.75
2023-04-15T22:22:01.157Z,96902.16
2023-04-15T22:24:32.770Z,96903.00
2023-04-15T22:27:08.885Z,96905.63
2023-04-15T22:29:35.502Z,96904.09
2023-04-15T22:32:02.043Z,96917.25
2023-04-15T22:34:31.723Z,96914.13
2023-04-15T22:36:58.622Z,96910.69
2023-04-15T22:39:29.958Z,96914.19
2023-04-15T22:41:58.705Z,96917.66
2023-04-15T22:44:27.578Z,96921.53
2023-04-15T22:46:54.553Z,96922.69
2023-04-15T22:49:23.316Z,96917.69
2023-04-15T22:51:54.609Z,96918.44
2023-04-15T22:54:26.004Z,96920.38
2023-04-15T22:56:54.638Z,96924.63
2023-04-15T22:59:21.211Z,96929.31
2023-04-15T23:01:47.878Z,96928.94
2023-04-15T23:04:25.669Z,96925.03
2023-04-15T23:06:54.337Z,96923.16
2023-04-15T23:09:21.096Z,96930.50
2023-04-15T23:11:47.837Z,96925.88
2023-04-15T23:14:14.409Z,96930.09
2023-04-15T23:16:45.705Z,96929.72
2023-04-15T23:19:14.553Z,96933.97
2023-04-15T23:21:45.742Z,96935.97
2023-04-15T23:24:12.586Z,96932.88
2023-04-15T23:26:44.120Z,96943.25
2023-04-15T23:29:10.816Z,96947.09
2023-04-15T23:31:37.707Z,96952.50
2023-04-15T23:34:06.894Z,96948.66
2023-04-15T23:36:35.712Z,96945.63
2023-04-15T23:39:02.319Z,96951.78
2023-04-15T23:41:28.910Z,96952.91
2023-04-15T23:43:55.765Z,96950.56
2023-04-15T23:46:27.210Z,96953.66
2023-04-15T23:48:53.816Z,96953.28
2023-04-15T23:51:23.889Z,96952.91
2023-04-15T23:53:52.842Z,96953.72
2023-04-15T23:56:19.488Z,96952.56
2023-04-15T23:58:48.288Z,96948.41
